Time;durP1;ratioP1;P1;durP2;ratioP2;P2;SDS_P1;SDS_P2;PMS_P1;PMS_P2;Temp;Humidity;BMP_temperature;BMP_pressure;BME280_temperature;BME280_humidity;BME280_pressure;Samples;Min_cycle;Max_cycle;Signal;HPM_P1;HPM_P2
2021/11/15 00:02:00;;;;;;;55.97;28.23;;;;;;;8.48;69.55;100449.28;5052920;28;20036;-48
2021/11/15 00:04:26;;;;;;;53.95;28.30;;;;;;;8.44;69.66;100450.63;5052710;28;20083;-51
2021/11/15 00:06:51;;;;;;;51.88;28.20;;;;;;;8.66;69.67;100456.16;5054287;28;20041;-49
2021/11/15 00:09:17;;;;;;;56.13;28.50;;;;;;;8.74;68.82;100453.47;5053748;28;20440;-48
2021/11/15 00:11:42;;;;;;;58.60;28.55;;;;;;;8.65;69.49;100444.72;5053533;28;20128;-47
2021/11/15 00:14:08;;;;;;;53.25;27.80;;;;;;;8.76;68.64;100449.63;5053415;28;20047;-47
2021/11/15 00:16:33;;;;;;;55.55;27.63;;;;;;;8.83;68.73;100463.03;5053208;28;20062;-47
2021/11/15 00:18:59;;;;;;;51.92;26.80;;;;;;;8.72;69.36;100455.44;5053279;28;20029;-48
2021/11/15 00:21:24;;;;;;;49.65;25.98;;;;;;;8.67;68.88;100460.47;5053163;28;20017;-48
2021/11/15 00:23:50;;;;;;;48.00;24.95;;;;;;;8.49;69.62;100463.34;5051521;28;20032;-49
2021/11/15 00:26:15;;;;;;;47.80;25.67;;;;;;;8.50;70.17;100463.19;5052888;28;20033;-49
2021/11/15 00:28:41;;;;;;;52.42;26.45;;;;;;;8.32;70.61;100465.22;5052855;28;20033;-48
2021/11/15 00:31:07;;;;;;;50.65;25.75;;;;;;;8.50;69.98;100454.41;5052732;28;20028;-47
2021/11/15 00:33:32;;;;;;;49.20;25.42;;;;;;;8.19;70.46;100460.47;5052413;28;20484;-47
2021/11/15 00:35:58;;;;;;;43.58;24.23;;;;;;;8.23;70.24;100465.25;5052788;28;20063;-49
2021/11/15 00:38:23;;;;;;;43.15;22.77;;;;;;;8.17;70.08;100463.28;5052817;28;20421;-47
2021/11/15 00:40:49;;;;;;;42.35;22.55;;;;;;;8.12;69.99;100455.00;5052691;28;20025;-47
2021/11/15 00:43:15;;;;;;;43.92;23.25;;;;;;;8.21;70.57;100456.63;5052583;28;20044;-47
2021/11/15 00:45:40;;;;;;;41.38;21.75;;;;;;;8.17;69.83;100463.28;5052565;28;20021;-48
2021/11/15 00:48:06;;;;;;;36.35;20.48;;;;;;;8.43;68.09;100458.75;5052478;28;20028;-47
2021/11/15 00:50:32;;;;;;;41.30;20.67;;;;;;;8.36;68.34;100458.59;5052205;28;20147;-48
2021/11/15 00:52:57;;;;;;;43.10;22.00;;;;;;;8.29;68.59;100461.09;5052423;28;20051;-47
2021/11/15 00:55:23;;;;;;;41.25;20.98;;;;;;;8.29;68.64;100455.78;5052538;28;20507;-48
2021/11/15 00:57:48;;;;;;;43.80;20.77;;;;;;;8.34;68.15;100455.25;5052368;28;20516;-47
2021/11/15 01:00:19;;;;;;;36.88;21.33;;;;;;;8.04;69.78;100447.06;5052171;28;20052;-50
2021/11/15 01:02:45;;;;;;;39.72;21.10;;;;;;;8.33;69.12;100446.47;5052143;28;20113;-48
2021/11/15 01:05:10;;;;;;;44.58;22.20;;;;;;;8.25;69.29;100443.03;5052460;28;20099;-48
2021/11/15 01:07:36;;;;;;;45.47;22.55;;;;;;;8.23;69.04;100445.88;5052008;28;20029;-48
2021/11/15 01:10:03;;;;;;;49.70;24.17;;;;;;;8.10;69.75;100457.00;5052368;28;20447;-49
2021/11/15 01:12:29;;;;;;;48.35;24.35;;;;;;;7.89;70.56;100448.78;5051063;28;20037;-48
2021/11/15 01:14:54;;;;;;;48.70;24.33;;;;;;;8.01;70.29;100448.25;5052246;28;20082;-48
2021/11/15 01:17:20;;;;;;;45.50;24.02;;;;;;;8.06;70.12;100447.72;5051816;28;20025;-48
2021/11/15 01:19:45;;;;;;;52.22;25.90;;;;;;;8.33;69.09;100448.31;5052129;28;20033;-51
2021/11/15 01:22:11;;;;;;;47.97;24.13;;;;;;;8.30;69.87;100451.28;5051924;28;20096;-50
2021/11/15 01:24:36;;;;;;;48.65;24.45;;;;;;;8.00;70.62;100445.75;5051740;28;20352;-49
2021/11/15 01:27:02;;;;;;;49.17;25.67;;;;;;;8.14;70.77;100447.69;5052196;28;20029;-48
2021/11/15 01:29:28;;;;;;;49.95;24.50;;;;;;;8.04;70.90;100444.44;5052147;28;20499;-48
2021/11/15 01:31:57;;;;;;;48.15;24.38;;;;;;;7.95;71.13;100446.25;5051400;28;20029;-49
2021/11/15 01:34:25;;;;;;;49.03;23.97;;;;;;;7.59;71.74;100449.28;5051377;28;20061;-47
2021/11/15 01:36:51;;;;;;;46.17;23.70;;;;;;;7.53;72.76;100441.19;5051519;28;20287;-47
2021/11/15 01:39:16;;;;;;;47.33;23.40;;;;;;;7.66;72.26;100444.16;5051273;28;20094;-49
2021/11/15 01:41:42;;;;;;;44.05;22.55;;;;;;;7.29;73.38;100445.50;5051655;28;20032;-48
2021/11/15 01:44:07;;;;;;;41.92;22.52;;;;;;;7.19;73.97;100444.81;5051258;28;20033;-48
2021/11/15 01:46:33;;;;;;;48.80;24.67;;;;;;;7.44;73.80;100446.50;5051141;28;20036;-47
2021/11/15 01:48:58;;;;;;;50.50;23.40;;;;;;;7.28;74.45;100438.53;5051507;28;20036;-47
2021/11/15 01:51:24;;;;;;;45.75;23.90;;;;;;;7.36;74.11;100443.00;5051165;28;20037;-47
2021/11/15 01:53:49;;;;;;;47.95;25.13;;;;;;;7.74;72.21;100448.63;5051604;28;20036;-46
2021/11/15 01:56:15;;;;;;;57.17;25.60;;;;;;;7.91;71.34;100444.13;5050852;28;20032;-49
2021/11/15 01:58:40;;;;;;;56.45;26.33;;;;;;;7.69;72.28;100449.13;5049870;28;20110;-48
2021/11/15 02:01:06;;;;;;;52.22;26.17;;;;;;;7.63;72.16;100447.97;5051162;28;20512;-48
2021/11/15 02:03:32;;;;;;;50.42;24.80;;;;;;;7.44;72.61;100450.94;5051077;28;20029;-48
2021/11/15 02:05:58;;;;;;;50.20;25.95;;;;;;;7.18;74.23;100451.13;5051165;28;20104;-48
2021/11/15 02:08:23;;;;;;;44.13;23.65;;;;;;;7.37;72.88;100450.81;5051156;28;20465;-49
2021/11/15 02:10:49;;;;;;;53.17;25.58;;;;;;;7.47;73.14;100444.50;5051002;28;20033;-49
2021/11/15 02:13:15;;;;;;;50.50;24.25;;;;;;;7.42;73.28;100448.50;5051000;28;20426;-51
2021/11/15 02:15:41;;;;;;;46.00;23.80;;;;;;;7.63;72.48;100445.34;5051085;28;20029;-50
2021/11/15 02:18:06;;;;;;;52.15;24.92;;;;;;;7.79;71.36;100444.47;5050890;28;20031;-50
2021/11/15 02:21:05;;;;;;;47.03;24.85;;;;;;;7.52;72.96;100453.63;5050645;28;20151;-49
2021/11/15 02:23:34;;;;;;;49.90;24.05;;;;;;;7.60;71.63;100450.94;5050620;28;20037;-51
2021/11/15 02:25:59;;;;;;;52.97;24.90;;;;;;;7.47;72.54;100447.16;5050607;28;20028;-49
2021/11/15 02:28:27;;;;;;;48.05;23.30;;;;;;;7.30;73.79;100441.84;5050680;28;20036;-47
2021/11/15 02:30:52;;;;;;;47.03;23.00;;;;;;;7.40;73.35;100439.84;5050223;28;20047;-49
2021/11/15 02:33:18;;;;;;;47.50;23.23;;;;;;;7.36;73.58;100443.00;5050789;28;20116;-47
2021/11/15 02:35:43;;;;;;;49.60;23.52;;;;;;;7.29;74.17;100444.66;5050219;28;20130;-47
2021/11/15 02:38:09;;;;;;;46.33;23.45;;;;;;;7.25;74.52;100449.44;5049209;28;20472;-47
2021/11/15 02:40:34;;;;;;;47.10;24.50;;;;;;;7.12;73.70;100422.63;5050678;28;20021;-47
2021/11/15 02:43:00;;;;;;;47.25;23.45;;;;;;;7.05;74.59;100446.31;5050282;28;20538;-47
2021/11/15 02:45:26;;;;;;;50.13;25.65;;;;;;;7.11;74.66;100439.53;5050679;28;20020;-48
2021/11/15 02:47:52;;;;;;;48.75;24.98;;;;;;;7.11;74.28;100442.19;5050505;28;20429;-50
2021/11/15 02:50:19;;;;;;;51.47;25.63;;;;;;;7.08;75.16;100443.31;5050503;28;20069;-48
2021/11/15 02:52:50;;;;;;;56.85;27.50;;;;;;;7.22;74.15;100445.31;5050534;28;20025;-47
2021/11/15 02:55:16;;;;;;;51.15;25.50;;;;;;;7.32;74.22;100447.81;5050605;28;20083;-50
2021/11/15 02:57:41;;;;;;;53.75;25.05;;;;;;;7.28;73.64;100443.03;5050760;28;20067;-50
2021/11/15 03:00:27;;;;;;;45.97;23.73;;;;;;;7.02;75.21;100446.63;5050450;28;20025;-51
2021/11/15 03:02:56;;;;;;;51.97;26.02;;;;;;;7.22;75.10;100450.63;5050783;28;20491;-49
2021/11/15 03:05:26;;;;;;;51.38;25.95;;;;;;;7.38;73.69;100451.63;5050824;28;20107;-48
2021/11/15 03:07:52;;;;;;;53.35;26.55;;;;;;;6.90;75.76;100448.75;5050702;28;20056;-51
2021/11/15 03:10:18;;;;;;;50.47;25.60;;;;;;;6.81;76.03;100447.06;5050346;28;20475;-48
2021/11/15 03:12:44;;;;;;;53.90;25.92;;;;;;;6.98;76.28;100451.41;5050110;28;20032;-50
2021/11/15 03:15:13;;;;;;;52.30;26.75;;;;;;;7.10;75.64;100453.75;5049940;28;20045;-48
2021/11/15 03:17:40;;;;;;;55.55;26.00;;;;;;;7.14;74.90;100461.22;5048708;28;20617;-50
2021/11/15 03:20:06;;;;;;;54.47;26.05;;;;;;;7.18;74.45;100446.66;5050225;28;20029;-48
2021/11/15 03:22:32;;;;;;;57.25;25.67;;;;;;;7.18;74.74;100456.41;5050228;28;20033;-51
2021/11/15 03:24:57;;;;;;;50.67;25.42;;;;;;;7.25;74.73;100452.09;5050079;28;20374;-48
2021/11/15 03:27:23;;;;;;;49.88;24.75;;;;;;;7.12;74.92;100460.53;5050201;28;20036;-51
2021/11/15 03:29:48;;;;;;;52.05;25.15;;;;;;;7.00;75.94;100464.47;5049807;28;20102;-48
2021/11/15 03:32:14;;;;;;;54.83;24.83;;;;;;;7.26;74.91;100463.53;5049824;28;20025;-48
2021/11/15 03:34:39;;;;;;;51.03;25.58;;;;;;;7.39;73.92;100455.94;5050115;28;20053;-47
2021/11/15 03:37:05;;;;;;;47.55;25.02;;;;;;;7.39;74.08;100462.06;5053512;28;20461;-48
2021/11/15 03:39:31;;;;;;;52.20;25.35;;;;;;;7.20;75.04;100454.44;5053923;28;20106;-48
2021/11/15 03:41:56;;;;;;;53.50;24.42;;;;;;;7.10;74.77;100456.38;5053969;28;20492;-48
2021/11/15 03:44:22;;;;;;;49.15;24.75;;;;;;;7.16;74.93;100461.88;5053830;28;20036;-49
2021/11/15 03:46:47;;;;;;;50.45;24.88;;;;;;;7.37;73.72;100461.38;5053975;28;20025;-49
2021/11/15 03:49:15;;;;;;;53.85;25.65;;;;;;;7.34;74.61;100455.59;5053792;28;20025;-49
2021/11/15 03:51:42;;;;;;;49.13;24.95;;;;;;;7.36;74.19;100456.25;5053581;28;20033;-47
2021/11/15 03:54:07;;;;;;;48.00;24.58;;;;;;;7.31;74.61;100459.41;5053645;28;20076;-47
2021/11/15 03:56:33;;;;;;;47.42;23.63;;;;;;;7.21;74.17;100459.53;5053426;28;20575;-48
2021/11/15 03:58:59;;;;;;;46.47;23.42;;;;;;;7.58;73.92;100465.38;5053606;28;20086;-50
2021/11/15 04:01:28;;;;;;;49.53;25.20;;;;;;;7.52;74.07;100466.84;5053789;28;20016;-48
2021/11/15 04:03:59;;;;;;;45.60;24.33;;;;;;;7.39;74.58;100463.88;5052298;28;20028;-47
2021/11/15 04:06:27;;;;;;;45.65;24.00;;;;;;;7.28;74.48;100470.31;5053989;28;20040;-47
2021/11/15 04:08:57;;;;;;;45.90;23.30;;;;;;;7.47;73.99;100471.81;5053764;28;20035;-47
2021/11/15 04:11:23;;;;;;;;;;;;;;;7.41;73.20;100475.94;5054235;28;20033;-48
2021/11/15 04:13:51;;;;;;;48.45;23.83;;;;;;;7.20;74.90;100471.13;5053111;28;20250;-47
2021/11/15 04:16:16;;;;;;;46.92;23.25;;;;;;;7.18;75.36;100459.88;5053693;28;20124;-47
2021/11/15 04:19:04;;;;;;;44.80;23.58;;;;;;;7.17;75.17;100471.44;5053230;28;20409;-47
2021/11/15 04:21:29;;;;;;;51.65;23.55;;;;;;;7.19;75.23;100469.47;5052781;28;20037;-51
2021/11/15 04:23:55;;;;;;;47.78;23.23;;;;;;;7.33;74.40;100473.31;5053596;28;20020;-49
2021/11/15 04:26:20;;;;;;;49.85;23.73;;;;;;;7.45;74.28;100468.50;5053293;28;20078;-48
2021/11/15 04:28:46;;;;;;;45.28;22.42;;;;;;;7.63;73.72;100471.81;5053384;28;20104;-50
2021/11/15 04:31:11;;;;;;;44.03;22.80;;;;;;;7.42;74.61;100474.13;5052692;28;20126;-50
2021/11/15 04:33:37;;;;;;;44.15;23.52;;;;;;;7.52;74.37;100474.81;5053360;28;20036;-48
2021/11/15 04:36:02;;;;;;;46.15;23.70;;;;;;;7.76;73.13;100468.66;5052724;28;20041;-47
2021/11/15 04:38:28;;;;;;;49.10;25.45;;;;;;;7.71;73.57;100478.94;5053269;28;20387;-48
2021/11/15 04:40:54;;;;;;;46.28;23.48;;;;;;;7.82;72.65;100478.59;5053523;28;20067;-48
2021/11/15 04:43:19;;;;;;;45.10;22.17;;;;;;;7.71;73.42;100480.75;5052924;28;20445;-49
2021/11/15 04:45:44;;;;;;;44.10;22.42;;;;;;;8.18;71.89;100474.69;5051413;28;20028;-48
2021/11/15 04:48:10;;;;;;;44.95;22.30;;;;;;;8.08;71.77;100477.53;5052766;28;20056;-48
2021/11/15 04:50:35;;;;;;;46.65;23.15;;;;;;;7.82;73.08;100480.41;5052624;28;20035;-47
2021/11/15 04:53:02;;;;;;;45.03;22.70;;;;;;;7.52;74.00;100482.75;5050362;28;20132;-48
2021/11/15 04:55:28;;;;;;;45.20;22.70;;;;;;;7.67;73.90;100488.19;5040853;28;20025;-48
2021/11/15 04:57:54;;;;;;;52.30;24.13;;;;;;;7.69;73.53;100488.03;5031888;28;20442;-47
2021/11/15 05:00:23;;;;;;;45.08;23.15;;;;;;;7.76;73.29;100492.50;5031518;28;20026;-49
2021/11/15 05:02:49;;;;;;;49.85;23.90;;;;;;;7.66;73.73;100497.16;5031350;28;20036;-48
2021/11/15 05:05:15;;;;;;;52.25;24.30;;;;;;;7.47;74.61;100498.31;5031637;28;20025;-47
2021/11/15 05:07:41;;;;;;;44.47;22.88;;;;;;;7.68;73.63;100502.28;5030462;28;20032;-47
2021/11/15 05:10:07;;;;;;;51.17;24.10;;;;;;;7.79;73.89;100509.91;5032125;28;20041;-38
2021/11/15 05:12:35;;;;;;;51.10;23.35;;;;;;;7.69;74.35;100509.22;5041089;28;20063;-38
2021/11/15 05:15:06;;;;;;;54.03;24.08;;;;;;;7.67;74.34;100524.47;5051548;28;20099;-38
2021/11/15 05:17:32;;;;;;;45.83;23.13;;;;;;;7.61;74.54;100518.81;5051716;28;20354;-38
2021/11/15 05:19:57;;;;;;;55.20;24.35;;;;;;;7.74;73.85;100517.50;5051431;28;20056;-38
2021/11/15 05:22:22;;;;;;;46.83;23.45;;;;;;;7.83;73.53;100527.13;5051437;28;20104;-38
2021/11/15 05:24:48;;;;;;;46.63;24.08;;;;;;;7.96;78.82;100532.75;5051462;28;20025;-38
2021/11/15 05:27:13;;;;;;;52.40;23.13;;;;;;;9.05;83.71;100541.06;5051497;28;20029;-38
2021/11/15 05:29:39;;;;;;;47.25;23.98;;;;;;;9.79;77.70;100537.91;5051446;28;20020;-39
2021/11/15 05:32:05;;;;;;;44.70;22.73;;;;;;;10.27;69.73;100533.16;5051047;28;20151;-39
2021/11/15 05:34:30;;;;;;;45.58;23.30;;;;;;;10.22;68.53;100540.00;5046896;28;20052;-39
2021/11/15 05:36:56;;;;;;;43.63;22.48;;;;;;;10.23;71.16;100539.03;5042393;28;20029;-38
2021/11/15 05:39:21;;;;;;;44.13;23.42;;;;;;;10.65;66.60;100548.25;5031230;28;20132;-38
2021/11/15 05:41:47;;;;;;;48.53;23.95;;;;;;;10.02;66.72;100553.84;5031395;28;20597;-38
2021/11/15 05:44:12;;;;;;;50.08;25.13;;;;;;;9.91;67.85;100562.25;5031265;28;20350;-38
2021/11/15 05:46:38;;;;;;;47.30;24.40;;;;;;;10.07;68.12;100559.44;5031469;28;20029;-38
2021/11/15 05:49:03;;;;;;;49.92;24.00;;;;;;;10.21;67.66;100559.66;5030656;28;20363;-38
2021/11/15 05:51:29;;;;;;;45.70;24.45;;;;;;;10.16;67.99;100565.50;5030160;28;20069;-38
2021/11/15 05:53:55;;;;;;;46.92;25.15;;;;;;;10.27;67.05;100569.56;5030086;28;20037;-38
2021/11/15 05:56:21;;;;;;;46.85;22.08;;;;;;;11.08;66.58;100564.34;5029405;28;20104;-38
2021/11/15 05:58:46;;;;;;;48.10;25.20;;;;;;;10.07;65.72;100569.25;5034038;28;20047;-38
2021/11/15 06:01:12;;;;;;;48.42;24.35;;;;;;;9.29;68.13;100579.09;5049794;28;20028;-38
2021/11/15 06:03:37;;;;;;;50.05;25.17;;;;;;;8.99;69.32;100574.44;5050183;28;20025;-39
2021/11/15 06:06:03;;;;;;;61.38;25.83;;;;;;;8.81;69.60;100584.47;5049637;28;20029;-37
2021/11/15 06:08:28;;;;;;;48.72;25.25;;;;;;;8.92;69.67;100577.97;5049786;28;20040;-38
2021/11/15 06:10:54;;;;;;;52.28;26.30;;;;;;;8.75;71.18;100583.31;5050104;28;20064;-38
2021/11/15 06:13:20;;;;;;;53.75;25.67;;;;;;;8.56;69.56;100579.22;5050064;28;20373;-37
2021/11/15 06:15:47;;;;;;;53.08;25.50;;;;;;;8.27;70.72;100586.91;5050122;28;20079;-38
2021/11/15 06:18:14;;;;;;;62.38;31.80;;;;;;;8.40;71.68;100593.34;5048262;28;20045;-38
2021/11/15 06:20:40;;;;;;;65.40;31.02;;;;;;;8.85;71.14;100588.41;5049855;28;20107;-37
2021/11/15 06:23:05;;;;;;;66.85;34.78;;;;;;;8.69;71.60;100594.63;5050273;28;20028;-38
2021/11/15 06:25:31;;;;;;;69.28;33.75;;;;;;;8.87;70.81;100598.88;5050507;28;20032;-38
2021/11/15 06:27:56;;;;;;;59.25;31.33;;;;;;;8.65;70.29;100592.50;5049859;28;20025;-38
2021/11/15 06:30:22;;;;;;;65.47;32.65;;;;;;;8.37;70.81;100595.50;5049866;28;20036;-37
2021/11/15 06:32:47;;;;;;;69.72;32.35;;;;;;;8.30;72.92;100591.84;5049788;28;20033;-39
2021/11/15 06:35:13;;;;;;;60.60;30.63;;;;;;;8.49;72.10;100593.34;5049225;28;20056;-38
2021/11/15 06:37:39;;;;;;;74.40;35.90;;;;;;;8.53;72.43;100599.97;5049535;28;20127;-37
2021/11/15 06:40:05;;;;;;;77.35;40.22;;;;;;;8.38;72.95;100599.81;5050361;28;20454;-38
2021/11/15 06:42:30;;;;;;;62.03;30.88;;;;;;;8.47;72.82;100605.94;5049474;28;20472;-38
2021/11/15 06:44:56;;;;;;;61.22;29.58;;;;;;;8.39;73.43;100610.22;5049103;28;20025;-48
2021/11/15 06:47:22;;;;;;;61.83;31.73;;;;;;;8.67;72.37;100611.72;5049052;28;20135;-47
2021/11/15 06:49:51;;;;;;;60.13;30.73;;;;;;;8.85;71.67;100619.44;5048469;28;20030;-46
2021/11/15 06:52:18;;;;;;;62.35;30.13;;;;;;;8.63;72.10;100615.72;5047193;28;20409;-49
2021/11/15 06:54:44;;;;;;;62.35;29.90;;;;;;;8.70;72.61;100622.81;5049202;28;20435;-50
2021/11/15 06:57:09;;;;;;;66.95;31.83;;;;;;;8.60;72.89;100615.06;5049244;28;20453;-47
2021/11/15 06:59:35;;;;;;;78.13;36.97;;;;;;;8.82;71.98;100620.63;5048937;28;20056;-49
2021/11/15 07:02:00;;;;;;;80.00;38.30;;;;;;;8.67;72.53;100619.69;5048995;28;20105;-50
2021/11/15 07:04:26;;;;;;;59.65;28.88;;;;;;;8.83;71.61;100622.28;5048511;28;20452;-48
2021/11/15 07:06:51;;;;;;;62.50;31.20;;;;;;;8.99;71.09;100626.72;5048950;28;20048;-51
2021/11/15 07:09:17;;;;;;;65.93;29.55;;;;;;;8.98;70.94;100619.75;5049193;28;20025;-48
2021/11/15 07:11:43;;;;;;;59.22;30.38;;;;;;;8.88;71.45;100619.94;5048806;28;20033;-50
2021/11/15 07:14:08;;;;;;;59.72;31.42;;;;;;;8.84;72.05;100615.16;5049104;28;20024;-49
2021/11/15 07:16:34;;;;;;;56.13;29.98;;;;;;;8.98;70.91;100622.41;5048561;28;20525;-47
2021/11/15 07:18:59;;;;;;;66.82;31.60;;;;;;;8.79;71.98;100618.31;5048748;28;20355;-47
2021/11/15 07:21:25;;;;;;;66.93;31.25;;;;;;;8.75;72.54;100615.16;5049240;28;20389;-48
2021/11/15 07:23:50;;;;;;;64.53;31.30;;;;;;;8.88;72.34;100621.78;5048981;28;20029;-48
2021/11/15 07:26:16;;;;;;;67.57;32.67;;;;;;;9.37;69.54;100618.91;5048898;28;20028;-50
2021/11/15 07:28:42;;;;;;;62.72;30.15;;;;;;;9.08;70.62;100622.19;5048865;28;20477;-49
2021/11/15 07:31:08;;;;;;;57.85;30.33;;;;;;;9.13;70.98;100618.03;5048844;28;20177;-48
2021/11/15 07:33:33;;;;;;;64.65;29.85;;;;;;;9.23;70.69;100623.13;5048664;28;20035;-49
2021/11/15 07:35:59;;;;;;;60.92;31.10;;;;;;;9.60;69.99;100624.28;5048589;28;20045;-48
2021/11/15 07:38:24;;;;;;;60.40;30.10;;;;;;;10.64;66.92;100621.09;5048952;28;20115;-48
2021/11/15 07:40:50;;;;;;;59.25;30.20;;;;;;;10.59;64.47;100626.19;5049183;28;20041;-47
2021/11/15 07:43:16;;;;;;;57.65;30.27;;;;;;;10.49;65.06;100621.94;5048773;28;20059;-48
2021/11/15 07:45:41;;;;;;;64.03;29.63;;;;;;;10.48;65.33;100632.75;5048643;28;20033;-50
2021/11/15 07:48:07;;;;;;;58.40;29.38;;;;;;;10.59;65.30;100628.84;5048658;28;20029;-48
2021/11/15 07:50:33;;;;;;;60.47;29.45;;;;;;;10.12;66.17;100628.88;5048312;28;20105;-50
2021/11/15 07:52:58;;;;;;;60.45;29.13;;;;;;;10.07;66.65;100625.94;5048384;28;20016;-47
2021/11/15 07:55:24;;;;;;;57.58;28.20;;;;;;;9.94;67.16;100636.34;5047133;28;20090;-48
2021/11/15 07:57:49;;;;;;;54.58;29.35;;;;;;;9.69;67.74;100633.84;5048593;28;20030;-48
2021/11/15 08:00:17;;;;;;;54.35;27.13;;;;;;;9.72;67.97;100632.66;5048173;28;20365;-48
2021/11/15 08:02:42;;;;;;;54.38;28.60;;;;;;;9.93;67.54;100626.69;5048581;28;20028;-47
2021/11/15 08:05:09;;;;;;;52.13;26.40;;;;;;;9.96;67.12;100627.19;5048550;28;20013;-47
2021/11/15 08:07:34;;;;;;;51.55;28.38;;;;;;;10.15;66.40;100633.03;5048939;28;20021;-51
2021/11/15 08:10:00;;;;;;;53.08;27.67;;;;;;;10.25;66.31;100622.94;5048538;28;20131;-47
2021/11/15 08:12:43;;;;;;;49.75;27.20;;;;;;;10.48;65.96;100632.75;5047199;28;20029;-49
2021/11/15 08:15:10;;;;;;;54.50;28.55;;;;;;;10.36;65.95;100630.53;5048483;28;20033;-48
2021/11/15 08:17:36;;;;;;;58.85;27.63;;;;;;;10.42;65.77;100631.66;5048427;28;20100;-47
2021/11/15 08:20:04;;;;;;;54.28;28.25;;;;;;;10.42;65.84;100636.97;5048412;28;20052;-47
2021/11/15 08:22:30;;;;;;;55.63;28.65;;;;;;;10.56;65.56;100641.47;5049508;28;20025;-48
2021/11/15 08:25:23;;;;;;;53.25;29.00;;;;;;;10.59;64.98;100637.63;5050859;28;20028;-50
2021/11/15 08:27:49;;;;;;;58.83;28.60;;;;;;;10.75;64.48;100640.13;5050724;28;20098;-47
2021/11/15 08:30:14;;;;;;;59.95;31.02;;;;;;;10.75;64.38;100634.78;5051768;28;20439;-48
2021/11/15 08:32:43;;;;;;;59.20;28.95;;;;;;;10.80;63.84;100642.25;5051366;28;20029;-47
2021/11/15 08:35:08;;;;;;;56.10;29.77;;;;;;;10.71;63.57;100638.00;5049995;28;20053;-48
2021/11/15 08:37:34;;;;;;;55.42;29.13;;;;;;;10.84;62.94;100638.19;5051967;28;20480;-50
2021/11/15 08:39:59;;;;;;;54.13;28.85;;;;;;;10.98;62.69;100641.06;5033927;28;20450;-48
2021/11/15 08:42:26;;;;;;;52.75;29.45;;;;;;;10.89;62.91;100637.63;5051248;28;20055;-50
2021/11/15 08:44:55;;;;;;;58.88;28.95;;;;;;;10.67;63.88;100632.22;5047748;28;20033;-50
2021/11/15 08:47:21;;;;;;;53.17;28.87;;;;;;;10.89;63.72;100635.81;5049994;28;20044;-49
2021/11/15 08:49:46;;;;;;;55.13;28.98;;;;;;;10.81;64.20;100645.72;5050837;28;20400;-49
2021/11/15 08:52:12;;;;;;;59.97;28.52;;;;;;;11.08;63.27;100644.25;5050554;28;20077;-48
2021/11/15 08:54:38;;;;;;;60.67;29.80;;;;;;;11.09;62.50;100644.06;5050684;28;20028;-47
2021/11/15 08:57:05;;;;;;;55.20;28.35;;;;;;;11.14;63.15;100643.53;5050981;28;20400;-47
2021/11/15 08:59:30;;;;;;;65.47;30.42;;;;;;;11.19;62.42;100635.78;5046295;28;20031;-48
2021/11/15 09:01:56;;;;;;;59.83;30.63;;;;;;;11.28;62.56;100641.84;5050282;28;20017;-48
2021/11/15 09:04:22;;;;;;;60.80;30.42;;;;;;;11.19;63.25;100635.78;5049377;28;20021;-51
2021/11/15 09:06:47;;;;;;;56.20;29.42;;;;;;;11.11;63.12;100635.91;5049180;28;20060;-47
2021/11/15 09:09:14;;;;;;;55.85;30.02;;;;;;;11.27;62.58;100632.19;5049411;28;20345;-48
2021/11/15 09:11:44;;;;;;;55.03;29.33;;;;;;;11.26;62.37;100631.38;5050408;28;20025;-50
2021/11/15 09:14:09;;;;;;;;;;;;;;;11.44;61.25;100630.13;5051111;28;20024;-50
2021/11/15 09:16:35;;;;;;;59.13;29.45;;;;;;;11.56;62.83;100626.00;5050772;28;19909;-47
2021/11/15 09:19:00;;;;;;;54.78;28.70;;;;;;;11.39;63.67;100627.22;5050663;28;20071;-47
2021/11/15 09:21:26;;;;;;;52.90;29.23;;;;;;;11.34;61.74;100628.59;5051045;28;20029;-47
2021/11/15 09:23:52;;;;;;;58.15;30.02;;;;;;;11.57;61.17;100614.28;5050871;28;20052;-49
2021/11/15 09:26:18;;;;;;;63.10;29.13;;;;;;;11.38;61.90;100615.72;5050533;28;20485;-49
2021/11/15 09:28:44;;;;;;;55.38;28.00;;;;;;;11.45;60.96;100616.63;5050416;28;20106;-49
2021/11/15 09:31:10;;;;;;;62.95;28.13;;;;;;;11.33;62.16;100615.47;5057055;28;20112;-48
2021/11/15 09:33:35;;;;;;;62.45;29.05;;;;;;;11.51;61.18;100615.06;5063100;28;20051;-49
2021/11/15 09:36:01;;;;;;;61.65;29.15;;;;;;;11.51;61.47;100607.88;5053970;28;20272;-49
2021/11/15 09:38:27;;;;;;;60.67;30.13;;;;;;;11.68;60.62;100613.81;5066384;28;20040;-48
2021/11/15 09:40:57;;;;;;;54.45;30.38;;;;;;;11.80;60.45;100618.63;5058202;28;20031;-50
2021/11/15 09:43:36;;;;;;;55.58;28.42;;;;;;;11.91;59.48;100613.66;5058165;28;20491;-48
2021/11/15 09:46:09;;;;;;;54.30;29.15;;;;;;;11.93;60.36;100614.28;5066686;28;20028;-47
2021/11/15 09:48:40;;;;;;;56.88;28.83;;;;;;;12.08;58.97;100610.72;5055275;28;20491;-48
2021/11/15 09:51:06;;;;;;;60.00;28.30;;;;;;;12.05;59.20;100611.94;5060467;28;20025;-48
2021/11/15 09:53:31;;;;;;;54.92;28.48;;;;;;;12.10;58.76;100614.84;5063065;28;20423;-48
2021/11/15 09:55:57;;;;;;;47.53;26.83;;;;;;;11.79;59.32;100617.00;5050977;28;20029;-48
2021/11/15 09:58:23;;;;;;;51.50;26.50;;;;;;;12.13;58.74;100614.47;5068110;28;20468;-48
2021/11/15 10:00:48;;;;;;;55.33;27.63;;;;;;;12.06;58.99;100615.44;5070710;28;20104;-49
2021/11/15 10:03:13;;;;;;;50.08;26.83;;;;;;;12.24;58.25;100615.81;5068972;28;20028;-48
2021/11/15 10:05:39;;;;;;;53.30;26.13;;;;;;;12.12;58.21;100620.81;5069522;28;20026;-48
2021/11/15 10:08:08;;;;;;;45.45;25.33;;;;;;;12.12;58.71;100612.00;5070084;28;20029;-49
2021/11/15 10:10:57;;;;;;;52.55;25.83;;;;;;;11.86;59.49;100616.06;5069976;28;20043;-48
2021/11/15 10:13:28;;;;;;;46.13;25.35;;;;;;;11.93;59.17;100610.78;5064209;28;20039;-48
2021/11/15 10:15:54;;;;;;;49.47;26.83;;;;;;;12.07;58.54;100611.72;5070328;28;20032;-49
2021/11/15 10:18:39;;;;;;;46.88;26.27;;;;;;;12.09;58.10;100613.22;5070160;28;20458;-47
2021/11/15 10:21:10;;;;;;;48.95;26.05;;;;;;;12.13;57.98;100617.13;5058127;28;20021;-47
2021/11/15 10:23:41;;;;;;;49.65;26.17;;;;;;;12.10;58.97;100624.69;5050238;28;20021;-52
2021/11/15 10:26:40;;;;;;;49.75;25.60;;;;;;;12.06;59.09;100618.91;5050228;28;20521;-50
2021/11/15 10:29:14;;;;;;;41.38;23.00;;;;;;;12.29;57.67;100612.53;5049775;28;20028;-47
2021/11/15 10:31:47;;;;;;;45.00;23.88;;;;;;;12.29;57.99;100616.03;5049455;28;20082;-50
2021/11/15 10:34:25;;;;;;;41.45;23.63;;;;;;;12.32;58.23;100614.84;5049586;28;20246;-47
2021/11/15 10:37:04;;;;;;;42.40;23.63;;;;;;;12.49;57.26;100623.38;5048241;28;20037;-47
2021/11/15 10:39:32;;;;;;;40.78;23.33;;;;;;;12.36;57.28;100616.09;5049688;28;20033;-49
2021/11/15 10:42:11;;;;;;;42.92;23.58;;;;;;;12.29;57.96;100617.88;5049416;28;20021;-48
2021/11/15 10:44:38;;;;;;;45.38;25.30;;;;;;;12.41;57.55;100613.66;5049214;28;20039;-49
2021/11/15 10:47:03;;;;;;;47.55;25.17;;;;;;;12.34;57.58;100623.47;5031598;28;20091;-50
2021/11/15 10:49:29;;;;;;;44.50;23.02;;;;;;;12.62;56.85;100622.63;5049279;28;20516;-52
2021/11/15 10:52:01;;;;;;;41.13;23.35;;;;;;;12.36;57.23;100624.09;5047853;28;20032;-47
2021/11/15 10:57:29;;;;;;;48.90;24.33;;;;;;;12.32;57.25;100620.16;5049091;28;20036;-47
2021/11/15 11:00:19;;;;;;;43.55;23.38;;;;;;;12.46;57.68;100616.56;5049302;28;20214;-48
2021/11/15 11:03:07;;;;;;;46.05;24.23;;;;;;;12.78;55.77;100616.16;5046309;28;20032;-47
2021/11/15 11:05:34;;;;;;;46.42;24.95;;;;;;;12.95;55.51;100614.00;5049360;28;20108;-48
2021/11/15 11:08:06;;;;;;;51.15;25.60;;;;;;;12.76;56.02;100621.69;5031446;28;20388;-48
2021/11/15 11:10:39;;;;;;;51.70;24.48;;;;;;;12.94;55.33;100609.66;5048986;28;20401;-48
2021/11/15 11:13:05;;;;;;;42.08;24.23;;;;;;;12.78;56.06;100606.31;5048900;28;20035;-47
2021/11/15 11:17:58;;;;;;;48.65;24.73;;;;;;;12.88;56.77;100619.28;5048856;28;20020;-48
2021/11/15 11:20:32;;;;;;;47.65;24.42;;;;;;;12.86;56.49;100626.69;5049341;28;20040;-48